Terminal Aerodrome Forecast
Issued by NWS Mt. Holly, NJ

Home | Current Version | Previous Version | Text Only | Print | Product List | Glossary On
Versions: 1 2 3 4 5 6 7 8 9 10 11 12 13 14 15 16 17 18 19 20 21 22 23 24 25 26 27 28 29 30 31 32 33 34 35 36
018
FTUS41 KPHI 211337 AAA
TAFPHL
TAF AMD
KPHL 211337Z 2114/2218 21012G20KT P6SM OVC010
     FM211500 22010G20KT P6SM BKN025
     FM211700 23012G22KT P6SM BKN060
     FM220000 27007KT P6SM BKN060 PROB30 2200/2202 5SM -SHRA BKN025
     FM220400 35009G18KT P6SM OVC040
     FM220800 01010KT P6SM OVC030
     FM221400 04010KT 2SM -SHRA OVC020=

USA.gov is the U.S. government's official web portal to all federal, state and local government web resources and services.